Verdon, Minnesota
Current Conditions -  °F | °C
As of 1:53 AM on Saturday 25 Oct 2014 (Local Time) from KAIT Reporting Station
Clear Clear  
Wind Chill: 13°   Ceiling: Unl
Heat Index: 13°   Visibility: 10mi
Dew Point:   Wind: 5mph
Humidity: 44%   Direction: 250°WSW
Pressure: 29.87"   Gusts: NA
Location:  46.7281°N, 93.6101°W
Report Text: KAIT 250653Z AUTO 25004KT 10SM CLR 13/01 A2987 RMK AO2
Loading
Personal Weather Stations






























Interactive Weather Map
Tropical Storm Tracking
New forecast layout! Learn more

10-Day Weather Forecast

Advertisements
Track Severe Weather on mobile